Time;durP1;ratioP1;P1;durP2;ratioP2;P2;SDS_P1;SDS_P2;PMS_P1;PMS_P2;Temp;Humidity;BMP_temperature;BMP_pressure;BME280_temperature;BME280_humidity;BME280_pressure;Samples;Min_cycle;Max_cycle;Signal;HPM_P1;HPM_P2
2021/01/06 00:02:18;;;;;;;;;;;;;;;;;;5009560;28;10559;-49
2021/01/06 00:04:43;;;;;;;;;;;;;;;;;;5021452;28;6992;-51
2021/01/06 00:07:09;;;;;;;;;;;;;;;;;;5027793;28;13860;-50
2021/01/06 00:09:34;;;;;;;;;;;;;;;;;;5021021;28;6814;-50
2021/01/06 00:11:59;;;;;;;;;;;;;;;;;;5025482;28;9312;-50
2021/01/06 00:14:24;;;;;;;;;;;;;;;;;;5018795;28;8772;-49
2021/01/06 00:16:54;;;;;;;;;;;;;;;;;;5019104;28;4562;-50
2021/01/06 00:19:19;;;;;;;;;;;;;;;;;;5020045;28;7610;-50
2021/01/06 00:21:45;;;;;;;;;;;;;;;;;;5017554;28;13298;-50
2021/01/06 00:24:10;;;;;;;;;;;;;;;;;;5026271;28;9563;-51
2021/01/06 00:26:36;;;;;;;;;;;;;;;;;;5022546;28;9617;-50
2021/01/06 00:29:02;;;;;;;;;;;;;;;;;;5028345;28;4463;-50
2021/01/06 00:31:27;;;;;;;;;;;;;;;;;;5019289;28;13519;-49
2021/01/06 00:33:53;;;;;;;;;;;;;;;;;;5027494;28;9515;-51
2021/01/06 00:36:20;;;;;;;;;;;;;;;;;;5023625;28;9285;-50
2021/01/06 00:38:45;;;;;;;;;;;;;;;;;;5025443;28;9385;-50
2021/01/06 00:41:11;;;;;;;;;;;;;;;;;;5023806;28;8042;-49
2021/01/06 00:43:36;;;;;;;;;;;;;;;;;;5025799;28;6901;-50
2021/01/06 00:46:02;;;;;;;;;;;;;;;;;;5010902;28;10978;-50
2021/01/06 00:48:27;;;;;;;;;;;;;;;;;;5019996;28;9798;-50
2021/01/06 00:50:53;;;;;;;;;;;;;;;;;;5015021;28;13475;-51
2021/01/06 00:53:22;;;;;;;;;;;;;;;;;;5027736;28;12950;-50
2021/01/06 00:55:47;;;;;;;;;;;;;;;;;;5029396;28;4135;-50
2021/01/06 00:58:13;;;;;;;;;;;;;;;;;;5027292;28;9343;-51
2021/01/06 01:00:38;;;;;;;;;;;;;;;;;;5020296;28;9206;-50
2021/01/06 01:03:04;;;;;;;;;;;;;;;;;;5020801;28;7022;-50
2021/01/06 01:05:31;;;;;;;;;;;;;;;;;;5025532;28;9726;-50
2021/01/06 01:07:56;;;;;;;;;;;;;;;;;;5027207;28;1178;-49
2021/01/06 01:10:27;;;;;;;;;;;;;;;;;;5021673;28;9434;-50
2021/01/06 01:12:53;;;;;;;;;;;;;;;;;;5026075;28;14252;-49
2021/01/06 01:15:19;;;;;;;;;;;;;;;;;;5009730;28;10361;-50
2021/01/06 01:17:45;;;;;;;;;;;;;;;;;;5027397;28;14892;-50
2021/01/06 01:20:10;;;;;;;;;;;;;;;;;;5028644;28;11100;-49
2021/01/06 01:22:36;;;;;;;;;;;;;;;;;;5024845;28;6949;-50
2021/01/06 01:25:01;;;;;;;;;;;;;;;;;;5029622;28;13442;-50
2021/01/06 01:27:26;;;;;;;;;;;;;;;;;;5027742;28;8257;-50
2021/01/06 01:29:51;;;;;;;;;;;;;;;;;;5025711;28;6265;-49
2021/01/06 01:32:17;;;;;;;;;;;;;;;;;;5018434;28;8306;-50
2021/01/06 01:34:42;;;;;;;;;;;;;;;;;;5027612;28;6942;-49
2021/01/06 01:37:07;;;;;;;;;;;;;;;;;;5025214;28;7878;-50
2021/01/06 01:39:32;;;;;;;;;;;;;;;;;;5023206;28;9362;-50
2021/01/06 01:41:58;;;;;;;;;;;;;;;;;;5016375;28;13032;-50
2021/01/06 01:44:23;;;;;;;;;;;;;;;;;;5018552;28;9843;-49
2021/01/06 01:47:03;;;;;;;;;;;;;;;;;;5032814;28;4112;-49
2021/01/06 01:49:39;;;;;;;;;;;;;;;;;;5021994;28;7784;-51
2021/01/06 01:52:08;;;;;;;;;;;;;;;;;;5022309;28;10608;-50
2021/01/06 01:54:33;;;;;;;;;;;;;;;;;;5019131;28;9348;-50
2021/01/06 01:57:12;;;;;;;;;;;;;;;;;;5019472;28;11052;-50
2021/01/06 01:59:43;;;;;;;;;;;;;;;;;;5011850;28;10912;-50
2021/01/06 02:02:29;;;;;;;;;;;;;;;;;;5021173;28;7522;-49
2021/01/06 02:04:57;;;;;;;;;;;;;;;;;;5016651;28;4160;-50
2021/01/06 02:07:25;;;;;;;;;;;;;;;;;;5001644;28;9207;-50
2021/01/06 02:09:56;;;;;;;;;;;;;;;;;;5025393;28;12394;-51
2021/01/06 02:12:26;;;;;;;;;;;;;;;;;;5024565;28;13139;-50
2021/01/06 02:15:06;;;;;;;;;;;;;;;;;;5003121;28;10803;-50
2021/01/06 02:17:31;;;;;;;;;;;;;;;;;;5033071;28;9958;-49
2021/01/06 02:19:57;;;;;;;;;;;;;;;;;;5015744;28;4207;-50
2021/01/06 02:22:23;;;;;;;;;;;;;;;;;;5013563;28;8234;-49
2021/01/06 02:24:49;;;;;;;;;;;;;;;;;;5018752;28;13340;-51
2021/01/06 02:27:15;;;;;;;;;;;;;;;;;;5025944;28;6731;-50
2021/01/06 02:29:41;;;;;;;;;;;;;;;;;;5019709;28;10722;-50
2021/01/06 02:32:08;;;;;;;;;;;;;;;;;;5031748;28;4280;-50
2021/01/06 02:34:34;;;;;;;;;;;;;;;;;;5003018;28;9384;-51
2021/01/06 02:36:59;;;;;;;;;;;;;;;;;;5019644;28;8200;-50
2021/01/06 02:39:25;;;;;;;;;;;;;;;;;;5017781;28;9805;-49
2021/01/06 02:41:50;;;;;;;;;;;;;;;;;;5016560;28;7645;-50
2021/01/06 02:44:17;;;;;;;;;;;;;;;;;;5030761;28;8711;-48
2021/01/06 02:46:42;;;;;;;;;;;;;;;;;;5021399;28;7502;-49
2021/01/06 02:49:08;;;;;;;;;;;;;;;;;;5016215;28;9371;-49
2021/01/06 02:51:39;;;;;;;;;;;;;;;;;;5026129;28;15126;-50
2021/01/06 02:54:06;;;;;;;;;;;;;;;;;;5021790;28;9431;-51
2021/01/06 02:56:32;;;;;;;;;;;;;;;;;;5025168;28;10733;-49
2021/01/06 02:58:59;;;;;;;;;;;;;;;;;;5029527;28;4238;-50
2021/01/06 03:01:27;;;;;;;;;;;;;;;;;;5019450;28;10270;-50
2021/01/06 03:03:54;;;;;;;;;;;;;;;;;;5021594;28;9116;-50
2021/01/06 03:06:31;;;;;;;;;;;;;;;;;;5030722;28;10324;-51
2021/01/06 03:08:56;;;;;;;;;;;;;;;;;;5023736;28;12637;-50
2021/01/06 03:11:21;;;;;;;;;;;;;;;;;;5027051;28;12714;-50
2021/01/06 03:13:47;;;;;;;;;;;;;;;;;;5026670;28;6990;-50
2021/01/06 03:16:12;;;;;;;;;;;;;;;;;;5018422;28;9127;-50
2021/01/06 03:18:38;;;;;;;;;;;;;;;;;;5027860;28;13757;-51
2021/01/06 03:21:05;;;;;;;;;;;;;;;;;;5025619;28;9086;-50
2021/01/06 03:23:37;;;;;;;;;;;;;;;;;;4994479;28;8012;-50
2021/01/06 03:26:04;;;;;;;;;;;;;;;;;;5035561;28;4141;-50
2021/01/06 03:28:31;;;;;;;;;;;;;;;;;;5024957;28;8089;-49
2021/01/06 03:30:57;;;;;;;;;;;;;;;;;;5016072;28;12636;-49
2021/01/06 03:33:25;;;;;;;;;;;;;;;;;;5026571;28;11109;-50
2021/01/06 03:36:12;;;;;;;;;;;;;;;;;;5031191;28;9987;-51
2021/01/06 03:38:40;;;;;;;;;;;;;;;;;;5020888;28;11239;-49
2021/01/06 03:41:07;;;;;;;;;;;;;;;;;;5020303;28;1085;-50
2021/01/06 03:43:34;;;;;;;;;;;;;;;;;;5027637;28;13777;-50
2021/01/06 03:46:01;;;;;;;;;;;;;;;;;;5029734;28;8216;-50
2021/01/06 03:48:35;;;;;;;;;;;;;;;;;;5014548;28;11345;-51
2021/01/06 03:51:04;;;;;;;;;;;;;;;;;;5013848;28;9687;-50
2021/01/06 03:53:37;;;;;;;;;;;;;;;;;;5015133;28;14323;-49
2021/01/06 03:56:11;;;;;;;;;;;;;;;;;;5023691;28;4156;-50
2021/01/06 03:58:44;;;;;;;;;;;;;;;;;;5015119;28;7274;-50
2021/01/06 04:01:25;;;;;;;;;;;;;;;;;;5021664;28;13027;-48
2021/01/06 04:04:03;;;;;;;;;;;;;;;;;;5015915;28;9170;-50
2021/01/06 04:06:30;;;;;;;;;;;;;;;;;;5023398;28;10853;-50
2021/01/06 04:08:57;;;;;;;;;;;;;;;;;;5010093;28;15242;-50
2021/01/06 04:11:31;;;;;;;;;;;;;;;;;;5025454;28;7993;-50
2021/01/06 04:13:57;;;;;;;;;;;;;;;;;;5035713;28;4165;-50
2021/01/06 04:16:22;;;;;;;;;;;;;;;;;;5017574;28;13461;-49
2021/01/06 04:18:48;;;;;;;;;;;;;;;;;;5013639;28;8281;-50
2021/01/06 04:21:13;;;;;;;;;;;;;;;;;;5019378;28;9363;-49
2021/01/06 04:23:38;;;;;;;;;;;;;;;;;;5024172;28;14082;-51
2021/01/06 04:26:04;;;;;;;;;;;;;;;;;;5011246;28;4390;-49
2021/01/06 04:28:32;;;;;;;;;;;;;;;;;;5026394;28;10955;-49
2021/01/06 04:31:09;;;;;;;;;;;;;;;;;;5020766;28;13111;-50
2021/01/06 04:33:42;;;;;;;;;;;;;;;;;;5020752;28;15154;-49
2021/01/06 04:36:09;;;;;;;;;;;;;;;;;;5021952;28;11530;-49
2021/01/06 04:38:36;;;;;;;;;;;;;;;;;;5012832;28;13752;-50
2021/01/06 04:41:20;;;;;;;;;;;;;;;;;;5028142;28;4183;-50
2021/01/06 04:44:08;;;;;;;;;;;;;;;;;;5028999;28;6961;-50
2021/01/06 04:46:39;;;;;;;;;;;;;;;;;;5011484;28;8291;-50
2021/01/06 04:49:10;;;;;;;;;;;;;;;;;;5024817;28;14089;-50
2021/01/06 04:51:35;;;;;;;;;;;;;;;;;;5009277;28;10609;-50
2021/01/06 04:54:24;;;;;;;;;;;;;;;;;;5026614;28;8024;-50
2021/01/06 04:57:07;;;;;;;;;;;;;;;;;;5010313;28;11804;-50
2021/01/06 04:59:35;;;;;;;;;;;;;;;;;;5014864;28;10826;-49
2021/01/06 05:02:16;;;;;;;;;;;;;;;;;;5008945;28;4152;-50
2021/01/06 05:05:01;;;;;;;;;;;;;;;;;;5021889;28;6921;-50
2021/01/06 05:07:38;;;;;;;;;;;;;;;;;;5027166;28;9016;-50
2021/01/06 05:10:11;;;;;;;;;;;;;;;;;;5029365;28;14224;-50
2021/01/06 05:12:41;;;;;;;;;;;;;;;;;;5022686;28;15981;-50
2021/01/06 05:15:09;;;;;;;;;;;;;;;;;;5024711;28;15474;-50
2021/01/06 05:17:35;;;;;;;;;;;;;;;;;;5027060;28;9360;-50
2021/01/06 05:20:01;;;;;;;;;;;;;;;;;;5022241;28;3897;-51
2021/01/06 05:22:26;;;;;;;;;;;;;;;;;;5032587;28;14493;-49
2021/01/06 05:24:51;;;;;;;;;;;;;;;;;;5014067;28;9513;-50
2021/01/06 05:27:21;;;;;;;;;;;;;;;;;;5018609;28;9115;-50
2021/01/06 05:29:54;;;;;;;;;;;;;;;;;;5026669;28;14388;-50
2021/01/06 05:32:19;;;;;;;;;;;;;;;;;;5025127;28;11596;-49
2021/01/06 05:34:46;;;;;;;;;;;;;;;;;;5034200;28;4025;-50
2021/01/06 05:37:15;;;;;;;;;;;;;;;;;;5024285;28;8491;-50
2021/01/06 05:39:40;;;;;;;;;;;;;;;;;;5025600;28;10819;-50
2021/01/06 05:42:26;;;;;;;;;;;;;;;;;;5028624;28;13517;-50
2021/01/06 05:44:52;;;;;;;;;;;;;;;;;;5028086;28;11318;-50
2021/01/06 05:47:39;;;;;;;;;;;;;;;;;;5026662;28;12710;-50
2021/01/06 05:50:13;;;;;;;;;;;;;;;;;;5023254;28;4284;-50
2021/01/06 05:52:38;;;;;;;;;;;;;;;;;;5028788;28;8164;-49
2021/01/06 05:55:05;;;;;;;;;;;;;;;;;;5028861;28;15589;-50
2021/01/06 05:57:33;;;;;;;;;;;;;;;;;;5018434;28;8837;-49
2021/01/06 06:00:04;;;;;;;;;;;;;;;;;;5029589;28;9469;-49
2021/01/06 06:02:55;;;;;;;;;;;;;;;;;;5016243;28;7974;-50
2021/01/06 06:05:21;;;;;;;;;;;;;;;;;;4968015;28;9456;-50
2021/01/06 06:08:14;;;;;;;;;;;;;;;;;;4969790;28;4094;-50
2021/01/06 06:10:54;;;;;;;;;;;;;;;;;;4967600;28;7034;-50
2021/01/06 06:13:34;;;;;;;;;;;;;;;;;;4965278;28;11055;-50
2021/01/06 06:16:26;;;;;;;;;;;;;;;;;;4961391;28;9658;-50
2021/01/06 06:18:57;;;;;;;;;;;;;;;;;;4935518;29;9418;-50
2021/01/06 06:21:28;;;;;;;;;;;;;;;;;;4927605;29;9471;-51
2021/01/06 06:24:12;;;;;;;;;;;;;;;;;;4929500;29;14663;-50
2021/01/06 06:26:56;;;;;;;;;;;;;;;;;;4928546;29;11870;-51
2021/01/06 06:29:31;;;;;;;;;;;;;;;;;;4926709;29;14875;-50
2021/01/06 06:31:57;;;;;;;;;;;;;;;;;;4931359;29;4228;-50
2021/01/06 06:34:31;;;;;;;;;;;;;;;;;;4928944;29;10590;-50
2021/01/06 06:37:22;;;;;;;;;;;;;;;;;;4927476;29;10741;-51
2021/01/06 06:40:05;;;;;;;;;;;;;;;;;;4923893;29;12665;-51
2021/01/06 06:42:32;;;;;;;;;;;;;;;;;;4945818;28;16588;-49
2021/01/06 06:44:59;;;;;;;;;;;;;;;;;;4963283;28;12233;-49
2021/01/06 06:47:29;;;;;;;;;;;;;;;;;;4966519;28;9242;-50
2021/01/06 06:50:18;;;;;;;;;;;;;;;;;;4964552;28;4256;-50
2021/01/06 06:52:49;;;;;;;;;;;;;;;;;;4964853;28;6937;-48
2021/01/06 06:55:26;;;;;;;;;;;;;;;;;;4984270;28;7082;-50
2021/01/06 06:57:56;;;;;;;;;;;;;;;;;;5023061;28;8413;-51
2021/01/06 07:00:26;;;;;;;;;;;;;;;;;;5027031;28;9438;-50
2021/01/06 07:02:53;;;;;;;;;;;;;;;;;;5012194;28;7700;-49
2021/01/06 07:05:27;;;;;;;;;;;;;;;;;;5020738;28;11120;-50
2021/01/06 07:07:53;;;;;;;;;;;;;;;;;;5019610;28;9885;-50
2021/01/06 07:10:19;;;;;;;;;;;;;;;;;;5015523;28;9398;-50
2021/01/06 07:12:45;;;;;;;;;;;;;;;;;;5027433;28;7680;-49
2021/01/06 07:15:21;;;;;;;;;;;;;;;;;;5026202;28;9343;-49
2021/01/06 07:17:47;;;;;;;;;;;;;;;;;;5027326;28;8627;-50
2021/01/06 07:20:15;;;;;;;;;;;;;;;;;;5029513;28;4301;-51
2021/01/06 07:22:45;;;;;;;;;;;;;;;;;;5024305;28;9420;-50
2021/01/06 07:25:17;;;;;;;;;;;;;;;;;;5028129;28;16513;-49
2021/01/06 07:27:43;;;;;;;;;;;;;;;;;;5020211;28;7666;-51
2021/01/06 07:30:09;;;;;;;;;;;;;;;;;;5013364;28;8917;-49
2021/01/06 07:32:39;;;;;;;;;;;;;;;;;;5016338;28;9469;-50
2021/01/06 07:35:08;;;;;;;;;;;;;;;;;;5037964;28;4160;-51
2021/01/06 07:37:34;;;;;;;;;;;;;;;;;;5018480;28;9078;-50
2021/01/06 07:40:02;;;;;;;;;;;;;;;;;;5025371;28;8175;-49
2021/01/06 07:42:32;;;;;;;;;;;;;;;;;;5016570;28;12044;-49
2021/01/06 07:45:08;;;;;;;;;;;;;;;;;;5026338;28;9808;-49
2021/01/06 07:47:35;;;;;;;;;;;;;;;;;;5012552;28;10434;-51
2021/01/06 07:50:07;;;;;;;;;;;;;;;;;;5022851;28;4136;-50
2021/01/06 07:52:35;;;;;;;;;;;;;;;;;;5015084;28;11568;-49
2021/01/06 07:55:04;;;;;;;;;;;;;;;;;;5028083;28;13327;-51
2021/01/06 07:57:41;;;;;;;;;;;;;;;;;;5021505;28;10769;-50
2021/01/06 08:00:11;;;;;;;;;;;;;;;;;;5028223;28;7904;-48
2021/01/06 08:02:45;;;;;;;;;;;;;;;;;;5020473;28;8265;-50
2021/01/06 08:05:20;;;;;;;;;;;;;;;;;;5016110;28;4165;-50
2021/01/06 08:07:45;;;;;;;;;;;;;;;;;;5013515;28;6873;-50
2021/01/06 08:10:15;;;;;;;;;;;;;;;;;;5019811;28;8156;-50
2021/01/06 08:12:41;;;;;;;;;;;;;;;;;;5019992;28;9497;-49
2021/01/06 08:15:07;;;;;;;;;;;;;;;;;;4999759;28;11405;-50
2021/01/06 08:17:41;;;;;;;;;;;;;;;;;;5025685;28;12949;-49
2021/01/06 08:20:10;;;;;;;;;;;;;;;;;;5028670;28;4164;-50
2021/01/06 08:22:41;;;;;;;;;;;;;;;;;;5017783;28;9406;-50
2021/01/06 08:25:18;;;;;;;;;;;;;;;;;;5018881;28;8846;-50
2021/01/06 08:27:45;;;;;;;;;;;;;;;;;;5021400;28;9436;-50
2021/01/06 08:30:13;;;;;;;;;;;;;;;;;;5023085;28;9620;-48
2021/01/06 08:32:39;;;;;;;;;;;;;;;;;;5022280;28;13865;-50
2021/01/06 08:35:07;;;;;;;;;;;;;;;;;;5019899;28;4286;-50
2021/01/06 08:37:34;;;;;;;;;;;;;;;;;;5014628;28;13911;-50
2021/01/06 08:40:02;;;;;;;;;;;;;;;;;;5031065;28;8105;-49
2021/01/06 08:42:37;;;;;;;;;;;;;;;;;;5030114;28;11518;-50
2021/01/06 08:45:04;;;;;;;;;;;;;;;;;;5026686;28;9536;-51
2021/01/06 08:47:34;;;;;;;;;;;;;;;;;;5026138;28;8945;-50
2021/01/06 08:50:20;;;;;;;;;;;;;;;;;;5025308;28;4051;-48
2021/01/06 08:52:49;;;;;;;;;;;;;;;;;;5028602;28;9719;-50
2021/01/06 08:55:23;;;;;;;;;;;;;;;;;;5026473;28;12261;-48
2021/01/06 08:57:56;;;;;;;;;;;;;;;;;;5024799;28;11650;-47
2021/01/06 09:00:23;;;;;;;;;;;;;;;;;;5026178;28;9318;-49
2021/01/06 09:02:53;;;;;;;;;;;;;;;;;;5018861;28;7532;-50
2021/01/06 09:05:54;;;;;;;;;;;;;;;;;;5013645;28;11061;-50
2021/01/06 09:08:19;;;;;;;;;;;;;;;;;;4970834;28;11062;-50
2021/01/06 09:10:49;;;;;;;;;;;;;;;;;;4976461;28;9935;-49
2021/01/06 09:13:17;;;;;;;;;;;;;;;;;;4970945;28;10131;-50
2021/01/06 09:15:48;;;;;;;;;;;;;;;;;;4971390;28;9481;-50
2021/01/06 09:18:19;;;;;;;;;;;;;;;;;;4968789;28;7931;-49
2021/01/06 09:20:47;;;;;;;;;;;;;;;;;;4968696;28;11773;-50
2021/01/06 09:23:16;;;;;;;;;;;;;;;;;;4974738;28;4176;-50
2021/01/06 09:25:41;;;;;;;;;;;;;;;;;;4969762;28;7889;-50
2021/01/06 09:28:09;;;;;;;;;;;;;;;;;;4968125;28;9681;-48
2021/01/06 09:30:37;;;;;;;;;;;;;;;;;;4968842;28;9606;-49
2021/01/06 09:33:03;;;;;;;;;;;;;;;;;;4969016;28;9506;-49
2021/01/06 09:35:32;;;;;;;;;;;;;;;;;;4968964;28;6850;-50
2021/01/06 09:37:57;;;;;;;;;;;;;;;;;;4981788;28;4212;-51
2021/01/06 09:40:23;;;;;;;;;;;;;;;;;;4969099;28;13130;-49
2021/01/06 09:42:58;;;;;;;;;;;;;;;;;;5009218;28;9413;-50
2021/01/06 09:45:25;;;;;;;;;;;;;;;;;;5017584;28;15245;-50
2021/01/06 09:47:52;;;;;;;;;;;;;;;;;;5018035;28;14449;-50
2021/01/06 09:50:20;;;;;;;;;;;;;;;;;;5027326;28;6718;-50
2021/01/06 09:52:46;;;;;;;;;;;;;;;;;;5030085;28;9624;-49
2021/01/06 09:55:17;;;;;;;;;;;;;;;;;;5027656;28;14244;-50
2021/01/06 09:57:43;;;;;;;;;;;;;;;;;;5019612;28;8183;-50
2021/01/06 10:00:26;;;;;;;;;;;;;;;;;;5024073;28;9063;-48
2021/01/06 10:02:52;;;;;;;;;;;;;;;;;;5016392;28;12726;-49
2021/01/06 10:05:29;;;;;;;;;;;;;;;;;;5020128;28;14672;-50
2021/01/06 10:07:58;;;;;;;;;;;;;;;;;;5021864;28;7077;-50
2021/01/06 10:10:35;;;;;;;;;;;;;;;;;;5025815;28;11018;-50
2021/01/06 10:13:23;;;;;;;;;;;;;;;;;;5025266;28;10658;-48
2021/01/06 10:15:55;;;;;;;;;;;;;;;;;;5021423;28;13960;-48
2021/01/06 10:18:32;;;;;;;;;;;;;;;;;;5023792;28;13660;-51
2021/01/06 10:21:06;;;;;;;;;;;;;;;;;;5016962;28;16972;-50
2021/01/06 10:23:38;;;;;;;;;;;;;;;;;;5034459;28;11212;-50
2021/01/06 10:26:15;;;;;;;;;;;;;;;;;;5026982;28;4257;-51
2021/01/06 10:28:42;;;;;;;;;;;;;;;;;;5016062;28;11513;-49
2021/01/06 10:31:12;;;;;;;;;;;;;;;;;;5027690;28;7594;-50
2021/01/06 10:33:56;;;;;;;;;;;;;;;;;;5023401;28;9583;-50
2021/01/06 10:36:38;;;;;;;;;;;;;;;;;;5000093;28;9353;-50
2021/01/06 10:39:03;;;;;;;;;;;;;;;;;;5018508;28;13210;-50
2021/01/06 10:41:34;;;;;;;;;;;;;;;;;;5022086;28;10591;-50
2021/01/06 10:44:22;;;;;;;;;;;;;;;;;;5029849;28;4230;-50
2021/01/06 10:46:52;;;;;;;;;;;;;;;;;;5024883;28;7067;-50
2021/01/06 10:49:20;;;;;;;;;;;;;;;;;;5027723;28;8106;-50
2021/01/06 10:52:00;;;;;;;;;;;;;;;;;;5025856;28;13200;-50
2021/01/06 10:54:41;;;;;;;;;;;;;;;;;;5026856;28;7864;-49
2021/01/06 10:57:15;;;;;;;;;;;;;;;;;;5019389;28;11178;-50
2021/01/06 11:00:00;;;;;;;;;;;;;;;;;;5031123;28;11950;-50
2021/01/06 11:02:49;;;;;;;;;;;;;;;;;;5018502;28;7939;-50
2021/01/06 11:05:21;;;;;;;;;;;;;;;;;;4959896;28;4196;-49
2021/01/06 11:07:58;;;;;;;;;;;;;;;;;;4966525;28;9697;-50
2021/01/06 11:10:37;;;;;;;;;;;;;;;;;;4966197;28;14262;-51
2021/01/06 11:13:13;;;;;;;;;;;;;;;;;;4961489;28;7744;-50
2021/01/06 11:15:57;;;;;;;;;;;;;;;;;;4970895;28;9377;-51
2021/01/06 11:18:22;;;;;;;;;;;;;;;;;;4970292;28;9630;-50
2021/01/06 11:21:04;;;;;;;;;;;;;;;;;;4966036;28;14784;-50
2021/01/06 11:23:30;;;;;;;;;;;;;;;;;;4971681;28;14309;-49
2021/01/06 11:26:18;;;;;;;;;;;;;;;;;;4970133;28;3947;-48
2021/01/06 11:28:49;;;;;;;;;;;;;;;;;;4960589;28;10982;-50
2021/01/06 11:31:18;;;;;;;;;;;;;;;;;;4966528;28;6909;-50
2021/01/06 11:33:44;;;;;;;;;;;;;;;;;;4961924;28;9001;-49
2021/01/06 11:36:09;;;;;;;;;;;;;;;;;;4965875;28;8234;-50
2021/01/06 11:38:37;;;;;;;;;;;;;;;;;;4961642;28;16991;-50
2021/01/06 11:41:03;;;;;;;;;;;;;;;;;;4976895;28;4162;-48
2021/01/06 11:43:35;;;;;;;;;;;;;;;;;;5027331;28;7895;-50
2021/01/06 11:46:12;;;;;;;;;;;;;;;;;;5022418;28;9670;-51
2021/01/06 11:48:38;;;;;;;;;;;;;;;;;;5024577;28;14459;-50
2021/01/06 11:51:32;;;;;;;;;;;;;;;;;;5026717;28;8813;-50
2021/01/06 11:54:00;;;;;;;;;;;;;;;;;;5012956;28;10356;-49
2021/01/06 11:56:30;;;;;;;;;;;;;;;;;;4999668;28;6679;-49
2021/01/06 11:59:05;;;;;;;;;;;;;;;;;;5019240;28;4093;-50
2021/01/06 12:01:36;;;;;;;;;;;;;;;;;;5022759;28;14990;-50
2021/01/06 12:04:13;;;;;;;;;;;;;;;;;;5019183;28;10997;-50
2021/01/06 12:06:44;;;;;;;;;;;;;;;;;;5016267;28;7362;-50
2021/01/06 12:09:24;;;;;;;;;;;;;;;;;;5030969;28;11765;-51
2021/01/06 12:11:58;;;;;;;;;;;;;;;;;;5013425;28;9388;-49
2021/01/06 12:14:31;;;;;;;;;;;;;;;;;;5023026;28;12758;-50
2021/01/06 12:17:02;;;;;;;;;;;;;;;;;;5033666;28;7695;-50
2021/01/06 12:19:33;;;;;;;;;;;;;;;;;;5027506;28;10795;-49
2021/01/06 12:22:01;;;;;;;;;;;;;;;;;;5025421;28;9803;-50
2021/01/06 12:24:29;;;;;;;;;;;;;;;;;;5027129;28;14866;-51
2021/01/06 12:26:57;;;;;;;;;;;;;;;;;;5026371;28;8084;-51
2021/01/06 12:29:24;;;;;;;;;;;;;;;;;;5029178;28;13248;-51
2021/01/06 12:31:54;;;;;;;;;;;;;;;;;;5027774;28;3917;-49
2021/01/06 12:34:25;;;;;;;;;;;;;;;;;;5027716;28;11765;-50
2021/01/06 12:37:06;;;;;;;;;;;;;;;;;;5025298;28;14246;-50
2021/01/06 12:39:37;;;;;;;;;;;;;;;;;;5021960;28;9229;-51
2021/01/06 12:42:06;;;;;;;;;;;;;;;;;;5028444;28;9510;-51
2021/01/06 12:44:33;;;;;;;;;;;;;;;;;;5025889;28;8993;-50
2021/01/06 12:47:05;;;;;;;;;;;;;;;;;;5016556;28;8411;-51
2021/01/06 12:49:38;;;;;;;;;;;;;;;;;;5018529;28;9430;-50
2021/01/06 12:52:06;;;;;;;;;;;;;;;;;;5011699;28;9546;-50
2021/01/06 12:54:40;;;;;;;;;;;;;;;;;;5027815;28;9283;-51
2021/01/06 12:57:08;;;;;;;;;;;;;;;;;;5022711;28;8234;-49
2021/01/06 12:59:43;;;;;;;;;;;;;;;;;;5015937;28;11505;-50
2021/01/06 13:02:32;;;;;;;;;;;;;;;;;;5021448;28;3937;-51
2021/01/06 13:05:08;;;;;;;;;;;;;;;;;;5021319;28;6949;-50
2021/01/06 13:07:34;;;;;;;;;;;;;;;;;;5023450;28;13304;-50
2021/01/06 13:10:02;;;;;;;;;;;;;;;;;;5020718;28;10523;-50
2021/01/06 13:12:30;;;;;;;;;;;;;;;;;;5004242;28;10986;-50
2021/01/06 13:14:59;;;;;;;;;;;;;;;;;;5027980;28;13268;-49
2021/01/06 13:17:29;;;;;;;;;;;;;;;;;;5026665;28;6636;-50
2021/01/06 13:20:11;;;;;;;;;;;;;;;;;;5031530;28;4195;-49
2021/01/06 13:22:42;;;;;;;;;;;;;;;;;;5013103;28;12117;-50
2021/01/06 13:25:08;;;;;;;;;;;;;;;;;;5029831;28;7763;-50
2021/01/06 13:27:47;;;;;;;;;;;;;;;;;;5022877;28;9386;-50
2021/01/06 13:30:18;;;;;;;;;;;;;;;;;;5023274;28;14542;-49
2021/01/06 13:32:53;;;;;;;;;;;;;;;;;;5026652;28;10238;-50
2021/01/06 13:35:38;;;;;;;;;;;;;;;;;;5028307;28;4195;-50
2021/01/06 13:38:11;;;;;;;;;;;;;;;;;;5028990;28;4152;-49
2021/01/06 13:40:39;;;;;;;;;;;;;;;;;;5018165;28;11599;-50
2021/01/06 13:43:07;;;;;;;;;;;;;;;;;;5019346;28;12574;-50
2021/01/06 13:45:32;;;;;;;;;;;;;;;;;;5028779;28;9937;-49
2021/01/06 13:48:11;;;;;;;;;;;;;;;;;;5026097;28;10721;-48
2021/01/06 13:50:42;;;;;;;;;;;;;;;;;;5030645;28;9528;-49
2021/01/06 13:53:07;;;;;;;;;;;;;;;;;;5017484;28;4104;-50
2021/01/06 13:55:32;;;;;;;;;;;;;;;;;;5026465;28;8620;-50
2021/01/06 13:58:04;;;;;;;;;;;;;;;;;;5018032;28;9890;-50
2021/01/06 14:00:37;;;;;;;;;;;;;;;;;;5010084;28;14183;-50
2021/01/06 14:03:21;;;;;;;;;;;;;;;;;;5024298;28;7469;-50
2021/01/06 14:06:01;;;;;;;;;;;;;;;;;;5024496;28;11160;-50
2021/01/06 14:08:28;;;;;;;;;;;;;;;;;;5018341;28;6779;-50
2021/01/06 14:11:12;;;;;;;;;;;;;;;;;;5021577;28;7643;-50
2021/01/06 14:13:52;;;;;;;;;;;;;;;;;;5018107;28;14051;-50
2021/01/06 14:16:37;;;;;;;;;;;;;;;;;;5031629;28;13576;-51
2021/01/06 14:19:23;;;;;;;;;;;;;;;;;;5018953;28;9539;-50
2021/01/06 14:22:00;;;;;;;;;;;;;;;;;;5017146;28;11671;-50
2021/01/06 14:24:26;;;;;;;;;;;;;;;;;;5023703;28;10379;-50
2021/01/06 14:26:52;;;;;;;;;;;;;;;;;;5024453;28;9084;-50
2021/01/06 14:29:29;;;;;;;;;;;;;;;;;;5018090;28;4172;-49
2021/01/06 14:32:04;;;;;;;;;;;;;;;;;;5025278;28;4080;-50
2021/01/06 14:34:31;;;;;;;;;;;;;;;;;;5024790;28;9611;-50
2021/01/06 14:37:00;;;;;;;;;;;;;;;;;;5031635;28;13162;-49
2021/01/06 14:39:26;;;;;;;;;;;;;;;;;;5017568;28;8485;-50
2021/01/06 14:41:51;;;;;;;;;;;;;;;;;;5007858;28;9426;-49
2021/01/06 14:44:19;;;;;;;;;;;;;;;;;;5031627;28;4223;-51
2021/01/06 14:47:03;;;;;;;;;;;;;;;;;;5028005;28;13119;-50
2021/01/06 14:49:32;;;;;;;;;;;;;;;;;;5021060;28;9056;-49
2021/01/06 14:52:20;;;;;;;;;;;;;;;;;;5020826;28;14654;-49
2021/01/06 14:54:57;;;;;;;;;;;;;;;;;;5025287;28;9145;-50
2021/01/06 14:57:27;;;;;;;;;;;;;;;;;;5014844;28;13467;-50
2021/01/06 15:00:04;;;;;;;;;;;;;;;;;;5026318;28;6735;-49
2021/01/06 15:02:36;;;;;;;;;;;;;;;;;;5028657;28;14457;-49
2021/01/06 15:05:21;;;;;;;;;;;;;;;;;;5018723;28;9725;-50
2021/01/06 15:07:57;;;;;;;;;;;;;;;;;;5015808;28;10086;-50
2021/01/06 15:10:27;;;;;;;;;;;;;;;;;;5015392;28;14442;-50
2021/01/06 15:13:02;;;;;;;;;;;;;;;;;;5024422;28;14709;-49
2021/01/06 15:15:30;;;;;;;;;;;;;;;;;;5020875;28;6785;-50
2021/01/06 15:17:59;;;;;;;;;;;;;;;;;;5022963;28;13610;-50
2021/01/06 15:20:29;;;;;;;;;;;;;;;;;;5025108;28;4295;-50
2021/01/06 15:22:58;;;;;;;;;;;;;;;;;;5028424;28;4133;-51
2021/01/06 15:25:24;;;;;;;;;;;;;;;;;;5022406;28;9481;-50
2021/01/06 15:27:54;;;;;;;;;;;;;;;;;;5015859;28;9374;-49
2021/01/06 15:30:23;;;;;;;;;;;;;;;;;;5021134;28;10161;-50
2021/01/06 15:32:58;;;;;;;;;;;;;;;;;;5023582;28;11850;-49
2021/01/06 15:35:26;;;;;;;;;;;;;;;;;;5020048;28;7864;-50
2021/01/06 15:37:56;;;;;;;;;;;;;;;;;;5025059;28;6984;-49
2021/01/06 15:40:34;;;;;;;;;;;;;;;;;;5020246;28;9266;-50
2021/01/06 15:43:05;;;;;;;;;;;;;;;;;;5024884;28;9407;-51
2021/01/06 15:45:30;;;;;;;;;;;;;;;;;;4999380;28;7855;-50
2021/01/06 15:48:01;;;;;;;;;;;;;;;;;;5024351;28;11763;-50
2021/01/06 15:50:28;;;;;;;;;;;;;;;;;;5025405;28;14562;-50
2021/01/06 15:53:08;;;;;;;;;;;;;;;;;;5022451;28;9723;-50
2021/01/06 15:55:33;;;;;;;;;;;;;;;;;;5019211;28;12238;-47
2021/01/06 15:57:59;;;;;;;;;;;;;;;;;;5016735;28;8073;-50
2021/01/06 16:00:28;;;;;;;;;;;;;;;;;;5029911;28;9599;-50
2021/01/06 16:02:55;;;;;;;;;;;;;;;;;;5017218;28;6506;-51
2021/01/06 16:05:31;;;;;;;;;;;;;;;;;;5020114;28;4052;-50
2021/01/06 16:07:57;;;;;;;;;;;;;;;;;;5013296;28;3957;-49
2021/01/06 16:10:31;;;;;;;;;;;;;;;;;;5016147;28;9177;-51
2021/01/06 16:12:57;;;;;;;;;;;;;;;;;;5006285;28;14127;-50
2021/01/06 16:15:25;;;;;;;;;;;;;;;;;;5022815;28;12281;-48
2021/01/06 16:17:51;;;;;;;;;;;;;;;;;;5012645;28;14756;-51
2021/01/06 16:20:24;;;;;;;;;;;;;;;;;;5022223;28;4171;-50
2021/01/06 16:22:50;;;;;;;;;;;;;;;;;;5009969;28;7548;-50
2021/01/06 16:25:18;;;;;;;;;;;;;;;;;;5019808;28;10077;-50
2021/01/06 16:27:44;;;;;;;;;;;;;;;;;;5020761;28;9722;-50
2021/01/06 16:30:12;;;;;;;;;;;;;;;;;;5022594;28;15536;-50
2021/01/06 16:32:56;;;;;;;;;;;;;;;;;;5026604;28;9520;-51
2021/01/06 16:35:21;;;;;;;;;;;;;;;;;;5026946;28;4107;-50
2021/01/06 16:37:48;;;;;;;;;;;;;;;;;;5018481;28;9853;-49
2021/01/06 16:40:14;;;;;;;;;;;;;;;;;;5004902;28;13132;-50
2021/01/06 16:43:01;;;;;;;;;;;;;;;;;;5017074;28;10297;-51
2021/01/06 16:45:27;;;;;;;;;;;;;;;;;;5016951;28;7857;-50
2021/01/06 16:48:01;;;;;;;;;;;;;;;;;;5015523;28;13322;-50
2021/01/06 16:50:28;;;;;;;;;;;;;;;;;;5011718;28;9470;-50
2021/01/06 16:52:55;;;;;;;;;;;;;;;;;;5017137;28;7453;-50
2021/01/06 16:55:34;;;;;;;;;;;;;;;;;;5013863;28;8691;-50
2021/01/06 16:58:06;;;;;;;;;;;;;;;;;;5016585;28;14505;-49
2021/01/06 17:00:34;;;;;;;;;;;;;;;;;;5024727;28;9418;-49
2021/01/06 17:03:01;;;;;;;;;;;;;;;;;;5023099;28;13925;-50
2021/01/06 17:05:27;;;;;;;;;;;;;;;;;;5025929;28;5014;-50
2021/01/06 17:07:54;;;;;;;;;;;;;;;;;;5003689;28;11558;-51
2021/01/06 17:10:31;;;;;;;;;;;;;;;;;;5022671;28;9859;-51
2021/01/06 17:13:01;;;;;;;;;;;;;;;;;;5010513;28;10812;-49
2021/01/06 17:15:28;;;;;;;;;;;;;;;;;;5032384;28;6621;-51
2021/01/06 17:17:53;;;;;;;;;;;;;;;;;;5017476;28;10127;-51
2021/01/06 17:20:23;;;;;;;;;;;;;;;;;;5027373;28;4196;-51
2021/01/06 17:22:49;;;;;;;;;;;;;;;;;;5022612;28;12743;-50